Warrenton, Georgia
Current Conditions -  °F | °C
As of 5:55 AM on Sunday 26 Oct 2014 (Local Time) from KHQU Reporting Station
Clear Clear  
Wind Chill: 56°   Ceiling: Unl
Heat Index: 56°   Visibility: 10mi
Dew Point: 56°   Wind: 3mph
Humidity: 100%   Direction: 300°WNW
Pressure: 29.99"   Gusts: NA
Location:  33.41°N, 82.66°W
Report Text: KHQU 260955Z AUTO 30003KT 10SM CLR 13/13 A2999 RMK AO1 T01310131
Loading
Personal Weather Stations






























Interactive Weather Map
Tropical Storm Tracking
New forecast layout! Learn more

10-Day Weather Forecast

Advertisements
Track Severe Weather on mobile